sensor_id;sensor_type;location;lat;lon;timestamp;P1;durP1;ratioP1;P2;durP2;ratioP2
19364;SDS011;9818;48.382;10.850;2024-02-28T00:00:28;4.40;;;2.77;;
19364;SDS011;9818;48.382;10.850;2024-02-28T00:02:59;2.70;;;2.50;;
19364;SDS011;9818;48.382;10.850;2024-02-28T00:05:28;3.33;;;2.60;;
19364;SDS011;9818;48.382;10.850;2024-02-28T00:07:57;3.10;;;2.80;;
19364;SDS011;9818;48.382;10.850;2024-02-28T00:10:25;2.70;;;2.40;;
19364;SDS011;9818;48.382;10.850;2024-02-28T00:12:54;2.73;;;2.33;;
19364;SDS011;9818;48.382;10.850;2024-02-28T00:15:23;2.97;;;2.67;;
19364;SDS011;9818;48.382;10.850;2024-02-28T00:17:54;3.47;;;2.47;;
19364;SDS011;9818;48.382;10.850;2024-02-28T00:20:23;3.67;;;2.47;;
19364;SDS011;9818;48.382;10.850;2024-02-28T00:22:54;3.10;;;2.50;;
19364;SDS011;9818;48.382;10.850;2024-02-28T00:25:23;3.10;;;2.67;;
19364;SDS011;9818;48.382;10.850;2024-02-28T00:27:52;3.27;;;2.57;;
19364;SDS011;9818;48.382;10.850;2024-02-28T00:30:21;2.50;;;2.30;;
19364;SDS011;9818;48.382;10.850;2024-02-28T00:32:50;2.60;;;2.40;;
19364;SDS011;9818;48.382;10.850;2024-02-28T00:35:21;3.50;;;2.80;;
19364;SDS011;9818;48.382;10.850;2024-02-28T00:37:50;4.20;;;2.50;;
19364;SDS011;9818;48.382;10.850;2024-02-28T00:40:19;2.80;;;2.50;;
19364;SDS011;9818;48.382;10.850;2024-02-28T00:42:47;3.30;;;2.63;;
19364;SDS011;9818;48.382;10.850;2024-02-28T00:45:16;3.87;;;2.73;;
19364;SDS011;9818;48.382;10.850;2024-02-28T00:47:45;2.70;;;2.43;;
19364;SDS011;9818;48.382;10.850;2024-02-28T00:50:14;2.90;;;2.40;;
19364;SDS011;9818;48.382;10.850;2024-02-28T00:52:45;4.33;;;2.70;;
19364;SDS011;9818;48.382;10.850;2024-02-28T00:55:14;2.90;;;2.60;;
19364;SDS011;9818;48.382;10.850;2024-02-28T00:57:43;2.97;;;2.67;;
19364;SDS011;9818;48.382;10.850;2024-02-28T01:00:13;2.83;;;2.30;;
19364;SDS011;9818;48.382;10.850;2024-02-28T01:02:42;3.00;;;2.77;;
19364;SDS011;9818;48.382;10.850;2024-02-28T01:05:10;3.00;;;2.40;;
19364;SDS011;9818;48.382;10.850;2024-02-28T01:07:39;3.23;;;2.53;;
19364;SDS011;9818;48.382;10.850;2024-02-28T01:10:11;4.70;;;2.80;;
19364;SDS011;9818;48.382;10.850;2024-02-28T01:12:40;2.90;;;2.60;;
19364;SDS011;9818;48.382;10.850;2024-02-28T01:15:09;2.93;;;2.60;;
19364;SDS011;9818;48.382;10.850;2024-02-28T01:17:38;2.33;;;2.13;;
19364;SDS011;9818;48.382;10.850;2024-02-28T01:20:07;3.67;;;2.67;;
19364;SDS011;9818;48.382;10.850;2024-02-28T01:22:36;3.63;;;2.73;;
19364;SDS011;9818;48.382;10.850;2024-02-28T01:25:05;3.60;;;2.67;;
19364;SDS011;9818;48.382;10.850;2024-02-28T01:27:37;2.73;;;2.47;;
19364;SDS011;9818;48.382;10.850;2024-02-28T01:30:06;2.67;;;2.47;;
19364;SDS011;9818;48.382;10.850;2024-02-28T01:32:36;2.97;;;2.67;;
19364;SDS011;9818;48.382;10.850;2024-02-28T01:35:05;2.80;;;2.60;;
19364;SDS011;9818;48.382;10.850;2024-02-28T01:37:36;2.73;;;2.47;;
19364;SDS011;9818;48.382;10.850;2024-02-28T01:40:05;2.93;;;2.63;;
19364;SDS011;9818;48.382;10.850;2024-02-28T01:42:38;2.43;;;2.23;;
19364;SDS011;9818;48.382;10.850;2024-02-28T01:45:07;2.40;;;2.20;;
19364;SDS011;9818;48.382;10.850;2024-02-28T01:47:40;3.33;;;2.70;;
19364;SDS011;9818;48.382;10.850;2024-02-28T01:50:10;2.90;;;2.30;;
19364;SDS011;9818;48.382;10.850;2024-02-28T01:52:39;3.03;;;2.60;;
19364;SDS011;9818;48.382;10.850;2024-02-28T01:55:09;3.20;;;2.77;;
19364;SDS011;9818;48.382;10.850;2024-02-28T01:57:40;2.90;;;2.70;;
19364;SDS011;9818;48.382;10.850;2024-02-28T02:00:09;3.97;;;2.93;;
19364;SDS011;9818;48.382;10.850;2024-02-28T02:02:40;2.90;;;2.57;;
19364;SDS011;9818;48.382;10.850;2024-02-28T02:05:09;2.77;;;2.50;;
19364;SDS011;9818;48.382;10.850;2024-02-28T02:07:41;2.93;;;2.63;;
19364;SDS011;9818;48.382;10.850;2024-02-28T02:10:10;3.27;;;2.63;;
19364;SDS011;9818;48.382;10.850;2024-02-28T02:12:41;2.97;;;2.67;;
19364;SDS011;9818;48.382;10.850;2024-02-28T02:15:10;2.87;;;2.67;;
19364;SDS011;9818;48.382;10.850;2024-02-28T02:17:39;2.83;;;2.47;;
19364;SDS011;9818;48.382;10.850;2024-02-28T02:20:08;3.13;;;2.83;;
19364;SDS011;9818;48.382;10.850;2024-02-28T02:22:42;2.90;;;2.60;;
19364;SDS011;9818;48.382;10.850;2024-02-28T02:25:11;3.47;;;2.80;;
19364;SDS011;9818;48.382;10.850;2024-02-28T02:27:40;3.00;;;2.70;;
19364;SDS011;9818;48.382;10.850;2024-02-28T02:30:09;3.40;;;2.67;;
19364;SDS011;9818;48.382;10.850;2024-02-28T02:32:39;3.20;;;2.77;;
19364;SDS011;9818;48.382;10.850;2024-02-28T02:35:08;3.27;;;2.70;;
19364;SDS011;9818;48.382;10.850;2024-02-28T02:37:36;3.23;;;2.73;;
19364;SDS011;9818;48.382;10.850;2024-02-28T02:40:08;3.60;;;2.60;;
19364;SDS011;9818;48.382;10.850;2024-02-28T02:42:38;2.87;;;2.67;;
19364;SDS011;9818;48.382;10.850;2024-02-28T02:45:07;3.03;;;2.70;;
19364;SDS011;9818;48.382;10.850;2024-02-28T02:47:37;2.83;;;2.63;;
19364;SDS011;9818;48.382;10.850;2024-02-28T02:50:06;3.27;;;2.90;;
19364;SDS011;9818;48.382;10.850;2024-02-28T02:52:35;2.80;;;2.60;;
19364;SDS011;9818;48.382;10.850;2024-02-28T02:55:04;3.77;;;2.83;;
19364;SDS011;9818;48.382;10.850;2024-02-28T02:57:36;3.30;;;3.00;;
19364;SDS011;9818;48.382;10.850;2024-02-28T03:00:07;3.30;;;3.00;;
19364;SDS011;9818;48.382;10.850;2024-02-28T03:02:37;2.90;;;2.60;;
19364;SDS011;9818;48.382;10.850;2024-02-28T03:05:06;2.83;;;2.60;;
19364;SDS011;9818;48.382;10.850;2024-02-28T03:07:36;2.57;;;2.37;;
19364;SDS011;9818;48.382;10.850;2024-02-28T03:10:05;2.93;;;2.60;;
19364;SDS011;9818;48.382;10.850;2024-02-28T03:12:37;3.20;;;2.77;;
19364;SDS011;9818;48.382;10.850;2024-02-28T03:15:06;2.97;;;2.67;;
19364;SDS011;9818;48.382;10.850;2024-02-28T03:17:35;2.70;;;2.50;;
19364;SDS011;9818;48.382;10.850;2024-02-28T03:20:04;3.00;;;2.70;;
19364;SDS011;9818;48.382;10.850;2024-02-28T03:22:35;2.90;;;2.70;;
19364;SDS011;9818;48.382;10.850;2024-02-28T03:25:04;2.97;;;2.70;;
19364;SDS011;9818;48.382;10.850;2024-02-28T03:27:36;2.70;;;2.50;;
19364;SDS011;9818;48.382;10.850;2024-02-28T03:30:05;3.13;;;2.77;;
19364;SDS011;9818;48.382;10.850;2024-02-28T03:32:35;3.10;;;2.80;;
19364;SDS011;9818;48.382;10.850;2024-02-28T03:35:04;3.20;;;2.90;;
19364;SDS011;9818;48.382;10.850;2024-02-28T03:37:34;3.17;;;2.77;;
19364;SDS011;9818;48.382;10.850;2024-02-28T03:40:03;3.17;;;2.83;;
19364;SDS011;9818;48.382;10.850;2024-02-28T03:42:32;2.97;;;2.70;;
19364;SDS011;9818;48.382;10.850;2024-02-28T03:45:04;2.97;;;2.67;;
19364;SDS011;9818;48.382;10.850;2024-02-28T03:47:34;3.07;;;2.77;;
19364;SDS011;9818;48.382;10.850;2024-02-28T03:50:03;3.23;;;2.93;;
19364;SDS011;9818;48.382;10.850;2024-02-28T03:52:32;2.97;;;2.67;;
19364;SDS011;9818;48.382;10.850;2024-02-28T03:55:01;3.30;;;3.00;;
19364;SDS011;9818;48.382;10.850;2024-02-28T03:57:30;3.13;;;2.83;;
19364;SDS011;9818;48.382;10.850;2024-02-28T04:00:03;2.80;;;2.60;;
19364;SDS011;9818;48.382;10.850;2024-02-28T04:02:33;2.80;;;2.60;;
19364;SDS011;9818;48.382;10.850;2024-02-28T04:05:02;3.37;;;2.73;;
19364;SDS011;9818;48.382;10.850;2024-02-28T04:07:32;2.93;;;2.63;;
19364;SDS011;9818;48.382;10.850;2024-02-28T04:10:01;3.10;;;2.80;;
19364;SDS011;9818;48.382;10.850;2024-02-28T04:12:30;3.17;;;2.80;;
19364;SDS011;9818;48.382;10.850;2024-02-28T04:14:59;3.50;;;3.20;;
19364;SDS011;9818;48.382;10.850;2024-02-28T04:17:32;3.60;;;2.83;;
19364;SDS011;9818;48.382;10.850;2024-02-28T04:20:01;2.60;;;2.40;;
19364;SDS011;9818;48.382;10.850;2024-02-28T04:22:30;3.30;;;3.00;;
19364;SDS011;9818;48.382;10.850;2024-02-28T04:24:59;3.00;;;2.80;;
19364;SDS011;9818;48.382;10.850;2024-02-28T04:27:28;2.60;;;2.40;;
19364;SDS011;9818;48.382;10.850;2024-02-28T04:29:57;3.43;;;3.10;;
19364;SDS011;9818;48.382;10.850;2024-02-28T04:32:28;3.00;;;2.70;;
19364;SDS011;9818;48.382;10.850;2024-02-28T04:34:57;3.23;;;2.93;;
19364;SDS011;9818;48.382;10.850;2024-02-28T04:37:27;2.80;;;2.60;;
19364;SDS011;9818;48.382;10.850;2024-02-28T04:39:56;3.00;;;2.70;;
19364;SDS011;9818;48.382;10.850;2024-02-28T04:42:25;3.50;;;2.97;;
19364;SDS011;9818;48.382;10.850;2024-02-28T04:44:54;3.07;;;2.77;;
19364;SDS011;9818;48.382;10.850;2024-02-28T04:47:23;3.00;;;2.70;;
19364;SDS011;9818;48.382;10.850;2024-02-28T04:49:55;3.03;;;2.73;;
19364;SDS011;9818;48.382;10.850;2024-02-28T04:52:24;3.23;;;2.93;;
19364;SDS011;9818;48.382;10.850;2024-02-28T04:54:53;3.10;;;2.80;;
19364;SDS011;9818;48.382;10.850;2024-02-28T04:57:22;3.13;;;2.83;;
19364;SDS011;9818;48.382;10.850;2024-02-28T04:59:51;3.13;;;2.83;;
19364;SDS011;9818;48.382;10.850;2024-02-28T05:02:20;3.20;;;2.90;;
19364;SDS011;9818;48.382;10.850;2024-02-28T05:04:51;3.07;;;2.77;;
19364;SDS011;9818;48.382;10.850;2024-02-28T05:07:22;3.20;;;2.80;;
19364;SDS011;9818;48.382;10.850;2024-02-28T05:09:51;3.00;;;2.70;;
19364;SDS011;9818;48.382;10.850;2024-02-28T05:12:20;3.30;;;3.00;;
19364;SDS011;9818;48.382;10.850;2024-02-28T05:14:48;3.07;;;2.77;;
19364;SDS011;9818;48.382;10.850;2024-02-28T05:17:17;3.37;;;2.80;;
19364;SDS011;9818;48.382;10.850;2024-02-28T05:19:46;2.77;;;2.57;;
19364;SDS011;9818;48.382;10.850;2024-02-28T05:22:15;2.87;;;2.63;;
19364;SDS011;9818;48.382;10.850;2024-02-28T05:24:48;3.23;;;2.93;;
19364;SDS011;9818;48.382;10.850;2024-02-28T05:27:17;3.10;;;2.90;;
19364;SDS011;9818;48.382;10.850;2024-02-28T05:29:47;3.23;;;2.93;;
19364;SDS011;9818;48.382;10.850;2024-02-28T05:32:16;3.20;;;2.90;;
19364;SDS011;9818;48.382;10.850;2024-02-28T05:34:46;3.30;;;3.00;;
19364;SDS011;9818;48.382;10.850;2024-02-28T05:37:16;4.17;;;3.30;;
19364;SDS011;9818;48.382;10.850;2024-02-28T05:39:48;3.67;;;3.17;;
19364;SDS011;9818;48.382;10.850;2024-02-28T05:42:17;3.27;;;2.97;;
19364;SDS011;9818;48.382;10.850;2024-02-28T05:44:47;3.23;;;2.93;;
19364;SDS011;9818;48.382;10.850;2024-02-28T05:47:16;3.67;;;3.20;;
19364;SDS011;9818;48.382;10.850;2024-02-28T05:49:45;3.20;;;2.90;;
19364;SDS011;9818;48.382;10.850;2024-02-28T05:52:14;3.63;;;3.30;;
19364;SDS011;9818;48.382;10.850;2024-02-28T05:54:43;3.30;;;3.00;;
19364;SDS011;9818;48.382;10.850;2024-02-28T05:57:16;3.50;;;3.17;;
19364;SDS011;9818;48.382;10.850;2024-02-28T05:59:44;3.53;;;3.23;;
19364;SDS011;9818;48.382;10.850;2024-02-28T06:02:13;3.30;;;3.00;;
19364;SDS011;9818;48.382;10.850;2024-02-28T06:04:42;3.50;;;3.20;;
19364;SDS011;9818;48.382;10.850;2024-02-28T06:07:11;3.53;;;3.00;;
19364;SDS011;9818;48.382;10.850;2024-02-28T06:09:40;3.30;;;3.00;;
19364;SDS011;9818;48.382;10.850;2024-02-28T06:12:08;4.30;;;3.53;;
19364;SDS011;9818;48.382;10.850;2024-02-28T06:14:40;3.43;;;3.00;;
19364;SDS011;9818;48.382;10.850;2024-02-28T06:17:09;3.87;;;3.40;;
19364;SDS011;9818;48.382;10.850;2024-02-28T06:19:37;3.40;;;3.10;;
19364;SDS011;9818;48.382;10.850;2024-02-28T06:22:06;3.50;;;3.20;;
19364;SDS011;9818;48.382;10.850;2024-02-28T06:24:35;3.80;;;3.40;;
19364;SDS011;9818;48.382;10.850;2024-02-28T06:27:04;3.60;;;3.30;;
19364;SDS011;9818;48.382;10.850;2024-02-28T06:29:40;3.43;;;3.10;;
19364;SDS011;9818;48.382;10.850;2024-02-28T06:32:08;3.13;;;2.83;;
19364;SDS011;9818;48.382;10.850;2024-02-28T06:34:37;3.43;;;3.13;;
19364;SDS011;9818;48.382;10.850;2024-02-28T06:37:07;3.60;;;3.13;;
19364;SDS011;9818;48.382;10.850;2024-02-28T06:39:36;3.57;;;3.10;;
19364;SDS011;9818;48.382;10.850;2024-02-28T06:42:05;3.93;;;3.23;;
19364;SDS011;9818;48.382;10.850;2024-02-28T06:44:34;7.00;;;3.30;;
19364;SDS011;9818;48.382;10.850;2024-02-28T06:47:05;3.90;;;3.50;;
19364;SDS011;9818;48.382;10.850;2024-02-28T06:49:37;4.10;;;3.37;;
19364;SDS011;9818;48.382;10.850;2024-02-28T06:52:06;3.90;;;3.50;;
19364;SDS011;9818;48.382;10.850;2024-02-28T06:54:34;3.90;;;3.50;;
19364;SDS011;9818;48.382;10.850;2024-02-28T06:57:04;3.90;;;3.03;;
19364;SDS011;9818;48.382;10.850;2024-02-28T06:59:32;3.70;;;3.30;;
19364;SDS011;9818;48.382;10.850;2024-02-28T07:02:01;3.60;;;2.83;;
19364;SDS011;9818;48.382;10.850;2024-02-28T07:04:32;4.10;;;3.50;;
19364;SDS011;9818;48.382;10.850;2024-02-28T07:07:01;4.90;;;3.27;;
19364;SDS011;9818;48.382;10.850;2024-02-28T07:09:31;3.97;;;3.50;;
19364;SDS011;9818;48.382;10.850;2024-02-28T07:11:59;4.30;;;3.50;;
19364;SDS011;9818;48.382;10.850;2024-02-28T07:14:28;4.20;;;3.73;;
19364;SDS011;9818;48.382;10.850;2024-02-28T07:16:57;6.33;;;3.50;;
19364;SDS011;9818;48.382;10.850;2024-02-28T07:19:26;3.80;;;3.40;;
19364;SDS011;9818;48.382;10.850;2024-02-28T07:21:57;3.70;;;3.37;;
19364;SDS011;9818;48.382;10.850;2024-02-28T07:24:26;3.97;;;3.47;;
19364;SDS011;9818;48.382;10.850;2024-02-28T07:26:55;4.27;;;3.77;;
19364;SDS011;9818;48.382;10.850;2024-02-28T07:29:24;4.23;;;3.50;;
19364;SDS011;9818;48.382;10.850;2024-02-28T07:31:52;3.90;;;3.50;;
19364;SDS011;9818;48.382;10.850;2024-02-28T07:34:22;4.10;;;3.57;;
19364;SDS011;9818;48.382;10.850;2024-02-28T07:36:50;4.00;;;3.47;;
19364;SDS011;9818;48.382;10.850;2024-02-28T07:39:22;3.47;;;3.10;;
19364;SDS011;9818;48.382;10.850;2024-02-28T07:41:52;3.83;;;3.40;;
19364;SDS011;9818;48.382;10.850;2024-02-28T07:44:21;3.67;;;3.37;;
19364;SDS011;9818;48.382;10.850;2024-02-28T07:46:49;3.73;;;3.20;;
19364;SDS011;9818;48.382;10.850;2024-02-28T07:49:18;3.60;;;3.30;;
19364;SDS011;9818;48.382;10.850;2024-02-28T07:51:47;4.47;;;3.70;;
19364;SDS011;9818;48.382;10.850;2024-02-28T07:54:16;4.10;;;3.33;;
19364;SDS011;9818;48.382;10.850;2024-02-28T07:56:48;3.47;;;3.13;;
19364;SDS011;9818;48.382;10.850;2024-02-28T07:59:17;4.10;;;3.60;;
19364;SDS011;9818;48.382;10.850;2024-02-28T08:01:47;4.10;;;3.70;;
19364;SDS011;9818;48.382;10.850;2024-02-28T08:04:17;4.50;;;4.10;;
19364;SDS011;9818;48.382;10.850;2024-02-28T08:06:46;3.70;;;3.20;;
19364;SDS011;9818;48.382;10.850;2024-02-28T08:09:15;3.50;;;3.20;;
19364;SDS011;9818;48.382;10.850;2024-02-28T08:11:50;3.53;;;3.23;;
19364;SDS011;9818;48.382;10.850;2024-02-28T08:14:18;3.83;;;3.53;;
19364;SDS011;9818;48.382;10.850;2024-02-28T08:16:47;5.20;;;3.40;;
19364;SDS011;9818;48.382;10.850;2024-02-28T08:19:16;4.23;;;3.83;;
19364;SDS011;9818;48.382;10.850;2024-02-28T08:21:45;4.10;;;3.70;;
19364;SDS011;9818;48.382;10.850;2024-02-28T08:24:14;4.77;;;3.40;;
19364;SDS011;9818;48.382;10.850;2024-02-28T08:26:43;3.93;;;3.37;;
19364;SDS011;9818;48.382;10.850;2024-02-28T08:29:15;3.60;;;3.20;;
19364;SDS011;9818;48.382;10.850;2024-02-28T08:31:44;4.93;;;3.70;;
19364;SDS011;9818;48.382;10.850;2024-02-28T08:34:13;4.23;;;3.50;;
19364;SDS011;9818;48.382;10.850;2024-02-28T08:36:42;3.90;;;3.50;;
19364;SDS011;9818;48.382;10.850;2024-02-28T08:39:11;4.53;;;3.90;;
19364;SDS011;9818;48.382;10.850;2024-02-28T08:41:40;4.10;;;3.70;;
19364;SDS011;9818;48.382;10.850;2024-02-28T08:44:09;3.43;;;3.03;;
19364;SDS011;9818;48.382;10.850;2024-02-28T08:46:41;4.00;;;3.60;;
19364;SDS011;9818;48.382;10.850;2024-02-28T08:49:09;4.27;;;3.60;;
19364;SDS011;9818;48.382;10.850;2024-02-28T08:51:38;4.27;;;3.80;;
19364;SDS011;9818;48.382;10.850;2024-02-28T08:54:08;4.80;;;4.00;;
19364;SDS011;9818;48.382;10.850;2024-02-28T08:56:37;5.13;;;4.10;;
19364;SDS011;9818;48.382;10.850;2024-02-28T08:59:06;4.77;;;3.83;;
19364;SDS011;9818;48.382;10.850;2024-02-28T09:01:34;5.67;;;4.00;;
19364;SDS011;9818;48.382;10.850;2024-02-28T09:04:09;5.33;;;4.57;;
19364;SDS011;9818;48.382;10.850;2024-02-28T09:06:37;5.20;;;4.37;;
19364;SDS011;9818;48.382;10.850;2024-02-28T09:09:06;5.00;;;4.30;;
19364;SDS011;9818;48.382;10.850;2024-02-28T09:11:35;5.70;;;4.40;;
19364;SDS011;9818;48.382;10.850;2024-02-28T09:14:04;6.57;;;4.80;;
19364;SDS011;9818;48.382;10.850;2024-02-28T09:16:33;5.40;;;4.50;;
19364;SDS011;9818;48.382;10.850;2024-02-28T09:19:02;5.70;;;3.77;;
19364;SDS011;9818;48.382;10.850;2024-02-28T09:21:34;5.33;;;4.23;;
19364;SDS011;9818;48.382;10.850;2024-02-28T09:24:03;4.90;;;3.70;;
19364;SDS011;9818;48.382;10.850;2024-02-28T09:26:33;5.33;;;4.47;;
19364;SDS011;9818;48.382;10.850;2024-02-28T09:29:01;5.63;;;4.50;;
19364;SDS011;9818;48.382;10.850;2024-02-28T09:31:30;6.00;;;4.67;;
19364;SDS011;9818;48.382;10.850;2024-02-28T09:33:56;24.17;;;15.50;;
19364;SDS011;9818;48.382;10.850;2024-02-28T09:36:29;36.77;;;24.10;;
19364;SDS011;9818;48.382;10.850;2024-02-28T09:39:00;38.63;;;23.37;;
19364;SDS011;9818;48.382;10.850;2024-02-28T09:41:29;35.40;;;22.33;;
19364;SDS011;9818;48.382;10.850;2024-02-28T09:43:58;27.93;;;16.23;;
19364;SDS011;9818;48.382;10.850;2024-02-28T09:46:30;22.00;;;13.97;;
19364;SDS011;9818;48.382;10.850;2024-02-28T09:49:00;21.03;;;12.50;;
19364;SDS011;9818;48.382;10.850;2024-02-28T09:51:31;18.67;;;11.33;;
19364;SDS011;9818;48.382;10.850;2024-02-28T09:54:04;17.20;;;11.33;;
19364;SDS011;9818;48.382;10.850;2024-02-28T09:56:33;16.53;;;10.67;;
19364;SDS011;9818;48.382;10.850;2024-02-28T09:59:02;15.43;;;10.63;;
19364;SDS011;9818;48.382;10.850;2024-02-28T10:01:33;15.60;;;10.03;;
19364;SDS011;9818;48.382;10.850;2024-02-28T10:04:10;15.77;;;9.07;;
19364;SDS011;9818;48.382;10.850;2024-02-28T10:06:40;14.37;;;9.00;;
19364;SDS011;9818;48.382;10.850;2024-02-28T10:09:11;13.17;;;8.00;;
19364;SDS011;9818;48.382;10.850;2024-02-28T10:11:41;16.00;;;9.63;;
19364;SDS011;9818;48.382;10.850;2024-02-28T10:14:10;13.40;;;7.70;;
19364;SDS011;9818;48.382;10.850;2024-02-28T10:16:38;10.73;;;7.47;;
19364;SDS011;9818;48.382;10.850;2024-02-28T10:19:07;10.83;;;7.80;;
19364;SDS011;9818;48.382;10.850;2024-02-28T10:21:36;11.33;;;7.47;;
19364;SDS011;9818;48.382;10.850;2024-02-28T10:24:05;12.57;;;7.23;;
19364;SDS011;9818;48.382;10.850;2024-02-28T10:26:44;11.20;;;7.40;;
19364;SDS011;9818;48.382;10.850;2024-02-28T10:29:20;10.73;;;7.10;;
19364;SDS011;9818;48.382;10.850;2024-02-28T10:31:49;13.80;;;7.10;;
19364;SDS011;9818;48.382;10.850;2024-02-28T10:34:17;10.70;;;7.00;;
19364;SDS011;9818;48.382;10.850;2024-02-28T10:36:46;10.97;;;6.77;;
19364;SDS011;9818;48.382;10.850;2024-02-28T10:39:15;11.17;;;7.47;;
19364;SDS011;9818;48.382;10.850;2024-02-28T10:41:47;11.87;;;7.80;;
19364;SDS011;9818;48.382;10.850;2024-02-28T10:44:16;10.50;;;7.70;;
19364;SDS011;9818;48.382;10.850;2024-02-28T10:46:48;10.07;;;7.53;;
19364;SDS011;9818;48.382;10.850;2024-02-28T10:49:17;10.07;;;7.20;;
19364;SDS011;9818;48.382;10.850;2024-02-28T10:51:46;8.33;;;5.93;;
19364;SDS011;9818;48.382;10.850;2024-02-28T10:54:17;11.47;;;6.53;;
19364;SDS011;9818;48.382;10.850;2024-02-28T10:56:52;10.03;;;5.93;;
19364;SDS011;9818;48.382;10.850;2024-02-28T10:59:21;8.27;;;6.70;;
19364;SDS011;9818;48.382;10.850;2024-02-28T11:01:53;12.17;;;6.23;;
19364;SDS011;9818;48.382;10.850;2024-02-28T11:04:22;8.97;;;6.37;;
19364;SDS011;9818;48.382;10.850;2024-02-28T11:06:51;7.97;;;6.60;;
19364;SDS011;9818;48.382;10.850;2024-02-28T11:09:22;7.57;;;5.70;;
19364;SDS011;9818;48.382;10.850;2024-02-28T11:11:54;9.27;;;5.93;;
19364;SDS011;9818;48.382;10.850;2024-02-28T11:14:23;7.23;;;5.70;;
19364;SDS011;9818;48.382;10.850;2024-02-28T11:16:59;8.40;;;5.70;;
19364;SDS011;9818;48.382;10.850;2024-02-28T11:19:29;7.60;;;5.70;;
19364;SDS011;9818;48.382;10.850;2024-02-28T11:21:59;9.80;;;6.23;;
19364;SDS011;9818;48.382;10.850;2024-02-28T11:24:29;8.07;;;6.00;;
19364;SDS011;9818;48.382;10.850;2024-02-28T11:27:01;7.87;;;5.20;;
19364;SDS011;9818;48.382;10.850;2024-02-28T11:29:31;8.03;;;5.43;;
19364;SDS011;9818;48.382;10.850;2024-02-28T11:31:59;7.70;;;5.47;;
19364;SDS011;9818;48.382;10.850;2024-02-28T11:34:29;7.20;;;5.70;;
19364;SDS011;9818;48.382;10.850;2024-02-28T11:36:58;6.73;;;5.60;;
19364;SDS011;9818;48.382;10.850;2024-02-28T11:39:27;6.37;;;5.20;;
19364;SDS011;9818;48.382;10.850;2024-02-28T11:42:10;8.07;;;5.77;;
19364;SDS011;9818;48.382;10.850;2024-02-28T11:44:41;8.00;;;5.80;;
19364;SDS011;9818;48.382;10.850;2024-02-28T11:47:10;7.73;;;5.33;;
19364;SDS011;9818;48.382;10.850;2024-02-28T11:49:40;7.30;;;5.30;;
19364;SDS011;9818;48.382;10.850;2024-02-28T11:52:09;7.27;;;5.50;;
19364;SDS011;9818;48.382;10.850;2024-02-28T11:54:39;6.23;;;5.00;;
19364;SDS011;9818;48.382;10.850;2024-02-28T11:57:10;7.03;;;5.33;;
19364;SDS011;9818;48.382;10.850;2024-02-28T11:59:43;6.30;;;5.50;;
19364;SDS011;9818;48.382;10.850;2024-02-28T12:02:13;6.27;;;5.20;;
19364;SDS011;9818;48.382;10.850;2024-02-28T12:04:43;6.30;;;5.37;;
19364;SDS011;9818;48.382;10.850;2024-02-28T12:07:15;7.63;;;5.40;;
19364;SDS011;9818;48.382;10.850;2024-02-28T12:09:44;7.80;;;5.00;;
19364;SDS011;9818;48.382;10.850;2024-02-28T12:12:16;6.20;;;4.97;;
19364;SDS011;9818;48.382;10.850;2024-02-28T12:14:45;8.20;;;5.00;;
19364;SDS011;9818;48.382;10.850;2024-02-28T12:17:14;8.70;;;5.00;;
19364;SDS011;9818;48.382;10.850;2024-02-28T12:19:44;6.57;;;4.77;;
19364;SDS011;9818;48.382;10.850;2024-02-28T12:22:12;6.00;;;4.70;;
19364;SDS011;9818;48.382;10.850;2024-02-28T12:24:41;7.27;;;5.03;;
19364;SDS011;9818;48.382;10.850;2024-02-28T12:27:10;7.13;;;5.30;;
19364;SDS011;9818;48.382;10.850;2024-02-28T12:29:41;7.07;;;5.07;;
19364;SDS011;9818;48.382;10.850;2024-02-28T12:32:10;6.23;;;4.93;;
19364;SDS011;9818;48.382;10.850;2024-02-28T12:34:42;7.17;;;5.70;;
19364;SDS011;9818;48.382;10.850;2024-02-28T12:37:10;8.63;;;6.53;;
19364;SDS011;9818;48.382;10.850;2024-02-28T12:39:39;9.03;;;6.30;;
19364;SDS011;9818;48.382;10.850;2024-02-28T12:42:08;7.90;;;6.50;;
19364;SDS011;9818;48.382;10.850;2024-02-28T12:44:38;8.17;;;5.93;;
19364;SDS011;9818;48.382;10.850;2024-02-28T12:47:13;8.43;;;6.10;;
19364;SDS011;9818;48.382;10.850;2024-02-28T12:49:42;7.87;;;5.30;;
19364;SDS011;9818;48.382;10.850;2024-02-28T12:52:11;8.67;;;5.80;;
19364;SDS011;9818;48.382;10.850;2024-02-28T12:54:40;6.97;;;5.30;;
19364;SDS011;9818;48.382;10.850;2024-02-28T12:57:08;6.27;;;4.90;;
19364;SDS011;9818;48.382;10.850;2024-02-28T12:59:39;6.37;;;4.70;;
19364;SDS011;9818;48.382;10.850;2024-02-28T13:02:07;6.67;;;4.93;;
19364;SDS011;9818;48.382;10.850;2024-02-28T13:04:40;8.00;;;5.17;;
19364;SDS011;9818;48.382;10.850;2024-02-28T13:07:09;6.43;;;4.87;;
19364;SDS011;9818;48.382;10.850;2024-02-28T13:09:37;7.03;;;5.00;;
19364;SDS011;9818;48.382;10.850;2024-02-28T13:12:07;8.30;;;5.03;;
19364;SDS011;9818;48.382;10.850;2024-02-28T13:14:36;5.90;;;4.60;;
19364;SDS011;9818;48.382;10.850;2024-02-28T13:17:05;5.93;;;4.70;;
19364;SDS011;9818;48.382;10.850;2024-02-28T13:19:34;6.07;;;4.60;;
19364;SDS011;9818;48.382;10.850;2024-02-28T13:22:05;5.73;;;4.57;;
19364;SDS011;9818;48.382;10.850;2024-02-28T13:24:34;6.97;;;4.93;;
19364;SDS011;9818;48.382;10.850;2024-02-28T13:27:03;7.43;;;4.70;;
19364;SDS011;9818;48.382;10.850;2024-02-28T13:29:33;6.50;;;4.63;;
19364;SDS011;9818;48.382;10.850;2024-02-28T13:32:01;8.07;;;4.83;;
19364;SDS011;9818;48.382;10.850;2024-02-28T13:34:31;6.63;;;4.77;;
19364;SDS011;9818;48.382;10.850;2024-02-28T13:37:00;7.40;;;4.40;;
19364;SDS011;9818;48.382;10.850;2024-02-28T13:39:32;7.63;;;4.80;;
19364;SDS011;9818;48.382;10.850;2024-02-28T13:42:01;6.20;;;4.80;;
19364;SDS011;9818;48.382;10.850;2024-02-28T13:44:31;8.10;;;4.70;;
19364;SDS011;9818;48.382;10.850;2024-02-28T13:47:01;5.43;;;4.23;;
19364;SDS011;9818;48.382;10.850;2024-02-28T13:49:30;7.07;;;4.57;;
19364;SDS011;9818;48.382;10.850;2024-02-28T13:51:59;5.80;;;4.10;;
19364;SDS011;9818;48.382;10.850;2024-02-28T13:54:28;7.03;;;4.57;;
19364;SDS011;9818;48.382;10.850;2024-02-28T13:56:59;5.50;;;4.30;;
19364;SDS011;9818;48.382;10.850;2024-02-28T13:59:30;6.53;;;4.47;;
19364;SDS011;9818;48.382;10.850;2024-02-28T14:01:59;7.97;;;4.30;;
19364;SDS011;9818;48.382;10.850;2024-02-28T14:04:28;7.50;;;4.70;;
19364;SDS011;9818;48.382;10.850;2024-02-28T14:06:56;5.63;;;4.23;;
19364;SDS011;9818;48.382;10.850;2024-02-28T14:09:25;4.93;;;4.30;;
19364;SDS011;9818;48.382;10.850;2024-02-28T14:11:54;6.00;;;4.37;;
19364;SDS011;9818;48.382;10.850;2024-02-28T14:14:26;5.30;;;4.20;;
19364;SDS011;9818;48.382;10.850;2024-02-28T14:16:55;5.67;;;4.30;;
19364;SDS011;9818;48.382;10.850;2024-02-28T14:19:23;6.07;;;4.23;;
19364;SDS011;9818;48.382;10.850;2024-02-28T14:21:52;7.07;;;4.77;;
19364;SDS011;9818;48.382;10.850;2024-02-28T14:24:21;5.33;;;4.07;;
19364;SDS011;9818;48.382;10.850;2024-02-28T14:26:50;4.30;;;3.87;;
19364;SDS011;9818;48.382;10.850;2024-02-28T14:29:19;5.63;;;3.90;;
19364;SDS011;9818;48.382;10.850;2024-02-28T14:31:50;5.27;;;4.23;;
19364;SDS011;9818;48.382;10.850;2024-02-28T14:34:19;4.97;;;3.83;;
19364;SDS011;9818;48.382;10.850;2024-02-28T14:36:48;4.70;;;3.90;;
19364;SDS011;9818;48.382;10.850;2024-02-28T14:39:17;4.43;;;3.73;;
19364;SDS011;9818;48.382;10.850;2024-02-28T14:41:46;4.27;;;3.87;;
19364;SDS011;9818;48.382;10.850;2024-02-28T14:44:15;5.77;;;4.43;;
19364;SDS011;9818;48.382;10.850;2024-02-28T14:46:44;4.87;;;4.10;;
19364;SDS011;9818;48.382;10.850;2024-02-28T14:49:15;5.87;;;4.33;;
19364;SDS011;9818;48.382;10.850;2024-02-28T14:51:44;5.13;;;4.00;;
19364;SDS011;9818;48.382;10.850;2024-02-28T14:54:14;5.53;;;4.80;;
19364;SDS011;9818;48.382;10.850;2024-02-28T14:56:45;6.07;;;4.17;;
19364;SDS011;9818;48.382;10.850;2024-02-28T14:59:14;5.40;;;4.00;;